createdAt,value
2018-07-13T00:01:40.481Z,90.50
2018-07-13T00:04:08.906Z,90.60
2018-07-13T00:06:37.355Z,90.70
2018-07-13T00:09:10.744Z,90.70
2018-07-13T00:14:26.075Z,90.70
2018-07-13T00:16:56.691Z,90.80
2018-07-13T00:19:25.654Z,90.80
2018-07-13T00:24:22.252Z,90.90
2018-07-13T00:26:51.282Z,91.00
2018-07-13T00:29:19.723Z,91.00
2018-07-13T00:31:48.148Z,90.90
2018-07-13T00:34:16.579Z,90.90
2018-07-13T00:36:45.011Z,90.90
2018-07-13T00:39:14.085Z,90.90
2018-07-13T00:41:42.518Z,90.90
2018-07-13T00:46:39.056Z,90.90
2018-07-13T00:49:07.490Z,90.90
2018-07-13T00:51:35.902Z,90.90
2018-07-13T00:54:04.335Z,91.00
2018-07-13T00:56:32.754Z,91.00
2018-07-13T00:59:01.209Z,91.10
2018-07-13T01:01:29.626Z,91.50
2018-07-13T01:03:58.072Z,91.30
2018-07-13T01:06:26.478Z,91.40
2018-07-13T01:08:54.896Z,91.50
2018-07-13T01:11:23.333Z,91.80
2018-07-13T01:13:51.745Z,91.90
2018-07-13T01:16:20.183Z,91.90
2018-07-13T01:18:48.622Z,92.00
2018-07-13T01:21:17.041Z,92.00
2018-07-13T01:23:45.477Z,92.00
2018-07-13T01:26:13.891Z,92.00
2018-07-13T01:28:42.293Z,92.10
2018-07-13T01:31:10.778Z,92.20
2018-07-13T01:33:39.201Z,92.30
2018-07-13T01:36:07.649Z,92.40
2018-07-13T01:38:36.059Z,92.50
2018-07-13T01:41:04.489Z,92.50
2018-07-13T01:43:32.907Z,92.60
2018-07-13T01:46:01.322Z,92.60
2018-07-13T01:48:29.733Z,92.60
2018-07-13T01:50:58.161Z,92.70
2018-07-13T01:53:26.592Z,92.80
2018-07-13T01:55:55.016Z,92.80
2018-07-13T01:58:23.441Z,92.80
2018-07-13T02:00:51.869Z,92.80
2018-07-13T02:03:20.290Z,92.80
2018-07-13T02:05:48.737Z,92.80
2018-07-13T02:08:17.153Z,92.80
2018-07-13T02:10:45.579Z,92.90
2018-07-13T02:13:14.000Z,92.80
2018-07-13T02:15:42.408Z,92.90
2018-07-13T02:18:10.824Z,93.20
2018-07-13T02:20:39.240Z,92.90
2018-07-13T02:23:07.656Z,92.90
2018-07-13T02:25:36.099Z,92.90
2018-07-13T02:28:04.546Z,92.80
2018-07-13T02:30:32.958Z,92.80
2018-07-13T02:33:01.387Z,92.90
2018-07-13T02:35:29.796Z,93.00
2018-07-13T02:37:58.238Z,93.00
2018-07-13T02:40:26.663Z,92.90
2018-07-13T02:42:55.159Z,92.90
2018-07-13T02:48:26.530Z,93.00
2018-07-13T02:50:54.954Z,92.90
2018-07-13T02:53:23.401Z,92.90
2018-07-13T02:55:51.804Z,92.80
2018-07-13T02:58:20.217Z,92.80
2018-07-13T03:03:17.058Z,92.80
2018-07-13T03:05:45.510Z,92.90
2018-07-13T03:08:13.938Z,92.80
2018-07-13T03:10:42.351Z,92.90
2018-07-13T03:13:10.764Z,92.90
2018-07-13T03:15:39.173Z,93.00
2018-07-13T03:18:07.589Z,93.00
2018-07-13T03:20:36.026Z,93.10
2018-07-13T03:23:04.458Z,92.90
2018-07-13T03:25:32.860Z,93.00
2018-07-13T03:28:01.276Z,93.00
2018-07-13T03:30:29.724Z,93.10
2018-07-13T03:32:58.135Z,93.00
2018-07-13T03:35:26.552Z,93.00
2018-07-13T03:37:55.000Z,92.90
2018-07-13T03:40:23.440Z,92.90
2018-07-13T03:42:51.870Z,92.80
2018-07-13T03:51:18.970Z,92.60
2018-07-13T03:53:47.374Z,92.40
2018-07-13T03:56:15.821Z,92.30
2018-07-13T03:58:44.230Z,92.30
2018-07-13T04:01:12.662Z,92.30
2018-07-13T04:03:41.086Z,92.30
2018-07-13T04:06:09.528Z,92.20
2018-07-13T04:08:38.264Z,92.40
2018-07-13T04:11:06.731Z,92.70
2018-07-13T04:13:35.163Z,92.80
2018-07-13T04:16:03.597Z,92.80
2018-07-13T04:18:32.027Z,92.90
2018-07-13T04:21:00.427Z,93.00
2018-07-13T04:23:28.861Z,93.00
2018-07-13T04:25:57.269Z,93.00
2018-07-13T04:28:25.722Z,93.00
2018-07-13T04:30:54.157Z,93.00
2018-07-13T04:33:22.543Z,93.00
2018-07-13T04:35:50.955Z,93.00
2018-07-13T04:38:19.369Z,93.10
2018-07-13T04:40:47.822Z,93.10
2018-07-13T04:43:16.253Z,93.10
2018-07-13T04:45:44.683Z,93.00
2018-07-13T04:48:13.125Z,92.90
2018-07-13T04:50:42.314Z,92.90
2018-07-13T04:53:10.849Z,92.80
2018-07-13T04:55:39.307Z,92.60
2018-07-13T04:58:07.738Z,92.50
2018-07-13T05:00:36.242Z,92.50
2018-07-13T05:05:32.760Z,92.60
2018-07-13T05:08:01.196Z,92.50
2018-07-13T05:10:29.641Z,92.50
2018-07-13T05:12:58.129Z,92.50
2018-07-13T05:15:26.580Z,92.50
2018-07-13T05:17:55.005Z,92.90
2018-07-13T05:20:23.425Z,92.50
2018-07-13T05:22:51.836Z,92.50
2018-07-13T05:25:20.290Z,92.50
2018-07-13T05:27:48.717Z,92.50
2018-07-13T05:30:17.146Z,92.50
2018-07-13T05:32:45.603Z,92.50
2018-07-13T05:35:14.030Z,92.50
2018-07-13T05:37:42.435Z,92.50
2018-07-13T05:40:10.853Z,92.60
2018-07-13T05:42:39.277Z,92.80
2018-07-13T05:45:07.691Z,92.60
2018-07-13T05:47:36.128Z,92.70
2018-07-13T05:50:05.478Z,92.60
2018-07-13T05:52:33.899Z,92.70
2018-07-13T05:55:02.318Z,92.60
2018-07-13T05:57:30.737Z,92.30
2018-07-13T05:59:59.155Z,92.20
2018-07-13T06:02:27.597Z,92.20
2018-07-13T06:04:56.059Z,92.30
2018-07-13T06:07:24.869Z,92.30
2018-07-13T06:09:53.315Z,92.20
2018-07-13T06:12:21.720Z,92.10
2018-07-13T06:14:50.162Z,92.00
2018-07-13T06:17:18.596Z,91.90
2018-07-13T06:19:47.055Z,91.90
2018-07-13T06:22:15.483Z,91.90
2018-07-13T06:24:43.946Z,91.70
2018-07-13T06:27:12.373Z,91.50
2018-07-13T06:29:40.796Z,91.40
2018-07-13T06:32:09.244Z,91.40
2018-07-13T06:34:37.663Z,91.10
2018-07-13T06:37:06.119Z,91.00
2018-07-13T06:39:34.546Z,91.10
2018-07-13T06:42:02.962Z,91.10
2018-07-13T06:44:31.372Z,90.80
2018-07-13T06:46:59.796Z,90.80
2018-07-13T06:49:28.269Z,90.70
2018-07-13T06:51:56.686Z,90.50
2018-07-13T06:54:25.128Z,90.60
2018-07-13T06:56:53.850Z,90.40
2018-07-13T06:59:22.836Z,90.10
2018-07-13T07:01:51.254Z,90.00
2018-07-13T07:04:26.114Z,90.00
2018-07-13T07:06:55.482Z,89.30
2018-07-13T07:09:25.580Z,88.80
2018-07-13T07:12:12.202Z,88.50
2018-07-13T07:14:40.663Z,89.00
2018-07-13T07:17:09.073Z,88.90
2018-07-13T07:19:37.479Z,88.60
2018-07-13T07:22:06.431Z,86.90
2018-07-13T07:24:35.018Z,86.90
2018-07-13T07:27:03.395Z,87.00
2018-07-13T07:32:07.140Z,86.30
2018-07-13T07:34:36.018Z,85.10
2018-07-13T07:37:04.433Z,84.00
2018-07-13T07:39:32.855Z,82.60
2018-07-13T07:44:29.675Z,81.70
2018-07-13T07:46:58.087Z,80.60
2018-07-13T07:49:26.486Z,80.00
2018-07-13T07:51:54.948Z,79.30
2018-07-13T07:54:23.321Z,79.70
2018-07-13T07:56:51.717Z,80.60
2018-07-13T08:01:49.339Z,80.50
2018-07-13T08:06:46.263Z,78.90
2018-07-13T08:09:14.497Z,78.00
2018-07-13T08:11:43.034Z,77.50
2018-07-13T08:14:11.795Z,76.90
2018-07-13T08:16:39.937Z,74.80
2018-07-13T08:19:08.358Z,73.80
2018-07-13T08:21:41.168Z,74.20
2018-07-13T08:24:10.166Z,74.40
2018-07-13T08:26:41.800Z,75.40
2018-07-13T08:29:11.346Z,76.80
2018-07-13T08:31:39.796Z,74.80
2018-07-13T08:34:08.383Z,74.30
2018-07-13T08:36:36.803Z,73.20
2018-07-13T08:39:07.523Z,72.50
2018-07-13T08:41:35.934Z,72.20
2018-07-13T08:44:04.357Z,72.80
2018-07-13T08:46:32.807Z,73.70
2018-07-13T08:49:01.562Z,72.60
2018-07-13T08:51:30.029Z,72.10
2018-07-13T08:53:58.398Z,71.40
2018-07-13T08:56:27.836Z,70.70
2018-07-13T08:58:56.259Z,70.20
2018-07-13T09:01:24.753Z,69.40
2018-07-13T09:03:53.160Z,69.90
2018-07-13T09:06:21.592Z,69.60
2018-07-13T09:08:50.357Z,68.90
2018-07-13T09:11:18.757Z,68.30
2018-07-13T09:13:47.303Z,68.70
2018-07-13T09:16:15.742Z,68.80
2018-07-13T09:18:44.268Z,67.80
2018-07-13T09:21:12.657Z,68.00
2018-07-13T09:23:41.078Z,69.00
2018-07-13T09:26:09.492Z,67.90
2018-07-13T09:28:37.917Z,67.10
2018-07-13T09:31:06.344Z,66.10
2018-07-13T09:33:39.963Z,66.00
2018-07-13T09:36:08.395Z,66.80
2018-07-13T09:38:36.798Z,66.10
2018-07-13T09:41:05.201Z,66.10
2018-07-13T09:43:33.599Z,66.30
2018-07-13T09:46:02.013Z,66.20
2018-07-13T09:48:30.646Z,65.80
2018-07-13T09:50:59.516Z,65.70
2018-07-13T09:53:27.933Z,65.60
2018-07-13T09:55:57.112Z,65.70
2018-07-13T09:58:34.657Z,64.00
2018-07-13T10:01:08.386Z,64.20
2018-07-13T10:03:36.808Z,63.70
2018-07-13T10:06:05.233Z,63.40
2018-07-13T10:08:34.110Z,63.20
2018-07-13T10:11:02.532Z,63.20
2018-07-13T10:13:30.991Z,62.70
2018-07-13T10:15:59.366Z,62.70
2018-07-13T10:18:28.166Z,62.90
2018-07-13T10:20:58.144Z,62.70
2018-07-13T10:23:27.134Z,61.60
2018-07-13T10:25:59.842Z,61.30
2018-07-13T10:28:28.276Z,61.70
2018-07-13T10:30:57.356Z,61.70
2018-07-13T10:33:25.958Z,61.40
2018-07-13T10:35:54.843Z,61.10
2018-07-13T10:38:23.242Z,60.00
2018-07-13T10:40:51.883Z,59.80
2018-07-13T10:43:20.293Z,59.50
2018-07-13T10:45:48.813Z,59.50
2018-07-13T10:48:17.263Z,59.40
2018-07-13T10:50:45.752Z,59.20
2018-07-13T10:53:14.157Z,58.90
2018-07-13T10:55:42.549Z,58.50
2018-07-13T10:58:10.970Z,58.80
2018-07-13T11:00:39.720Z,58.40
2018-07-13T11:03:08.499Z,57.90
2018-07-13T11:05:37.124Z,57.60
2018-07-13T11:08:05.604Z,57.00
2018-07-13T11:10:34.039Z,56.80
2018-07-13T11:13:02.640Z,56.30
2018-07-13T11:15:31.051Z,56.90
2018-07-13T11:17:59.444Z,57.00
2018-07-13T11:20:27.903Z,56.60
2018-07-13T11:22:56.300Z,57.20
2018-07-13T11:25:24.728Z,56.90
2018-07-13T11:27:53.130Z,57.10
2018-07-13T11:30:21.803Z,56.40
2018-07-13T11:32:50.221Z,55.50
2018-07-13T11:36:47.834Z,53.80
2018-07-13T11:39:16.240Z,53.50
2018-07-13T11:41:44.815Z,52.50
2018-07-13T11:44:13.259Z,52.70
2018-07-13T11:46:41.907Z,53.30
2018-07-13T11:49:10.331Z,53.00
2018-07-13T11:51:38.721Z,52.80
2018-07-13T11:54:07.143Z,52.60
2018-07-13T11:56:36.221Z,52.70
2018-07-13T11:59:04.628Z,53.30
2018-07-13T12:01:33.051Z,54.10
2018-07-13T12:04:01.456Z,54.40
2018-07-13T12:06:29.867Z,54.70
2018-07-13T12:08:58.282Z,55.00
2018-07-13T12:11:26.823Z,55.40
2018-07-13T12:13:55.242Z,55.90
2018-07-13T12:16:23.669Z,55.30
2018-07-13T12:18:52.063Z,54.40
2018-07-13T12:21:20.476Z,54.00
2018-07-13T12:23:48.897Z,54.20
2018-07-13T12:26:17.636Z,53.50
2018-07-13T12:28:46.090Z,53.40
2018-07-13T12:31:14.536Z,53.10
2018-07-13T12:33:42.955Z,53.10
2018-07-13T12:36:11.365Z,52.90
2018-07-13T12:38:39.799Z,53.50
2018-07-13T12:41:08.186Z,53.30
2018-07-13T12:43:36.601Z,52.80
2018-07-13T12:46:05.190Z,52.70
2018-07-13T12:48:33.621Z,53.20
2018-07-13T12:51:02.025Z,53.00
2018-07-13T12:53:30.440Z,52.60
2018-07-13T12:55:58.831Z,52.50
2018-07-13T12:58:27.246Z,52.10
2018-07-13T13:03:23.878Z,52.10
2018-07-13T13:05:52.414Z,52.20
2018-07-13T13:08:20.842Z,51.50
2018-07-13T13:10:49.240Z,50.50
2018-07-13T13:13:17.628Z,49.30
2018-07-13T13:15:46.045Z,49.70
2018-07-13T13:18:14.834Z,49.80
2018-07-13T13:20:43.244Z,49.80
2018-07-13T13:23:11.644Z,49.50
2018-07-13T13:25:40.048Z,49.70
2018-07-13T13:28:08.446Z,49.10
2018-07-13T13:30:36.885Z,49.00
2018-07-13T13:33:05.352Z,48.70
2018-07-13T13:35:33.816Z,48.40
2018-07-13T13:38:02.205Z,48.80
2018-07-13T13:40:30.900Z,49.90
2018-07-13T13:42:59.333Z,50.50
2018-07-13T13:45:28.059Z,51.10
2018-07-13T13:47:56.475Z,51.50
2018-07-13T13:50:24.883Z,50.90
2018-07-13T13:52:53.351Z,50.50
2018-07-13T13:55:21.828Z,50.20
2018-07-13T13:57:50.233Z,49.70
2018-07-13T14:00:18.724Z,49.70
2018-07-13T14:02:47.128Z,49.30
2018-07-13T14:05:15.579Z,48.80
2018-07-13T14:07:43.955Z,48.20
2018-07-13T14:10:12.391Z,47.90
2018-07-13T14:12:41.166Z,48.50
2018-07-13T14:15:09.751Z,48.60
2018-07-13T14:17:38.627Z,48.90
2018-07-13T14:20:07.036Z,48.00
2018-07-13T14:22:35.442Z,47.50
2018-07-13T14:25:03.869Z,47.10
2018-07-13T14:27:32.288Z,46.90
2018-07-13T14:30:00.686Z,46.90
2018-07-13T14:32:29.110Z,47.30
2018-07-13T14:34:57.502Z,48.80
2018-07-13T14:37:26.055Z,48.80
2018-07-13T14:39:54.536Z,48.40
2018-07-13T14:42:22.987Z,48.80
2018-07-13T14:44:51.384Z,49.30
2018-07-13T14:47:20.100Z,48.80
2018-07-13T14:49:48.522Z,48.40
2018-07-13T14:52:16.939Z,48.80
2018-07-13T14:54:45.499Z,49.30
2018-07-13T14:57:14.087Z,49.60
2018-07-13T14:59:42.565Z,50.10
2018-07-13T15:02:11.040Z,50.50
2018-07-13T15:04:39.519Z,50.50
2018-07-13T15:07:07.968Z,50.50
2018-07-13T15:09:36.421Z,49.50
2018-07-13T15:12:04.894Z,49.50
2018-07-13T15:14:33.314Z,49.40
2018-07-13T15:17:01.872Z,49.80
2018-07-13T15:19:30.299Z,49.90
2018-07-13T15:21:58.713Z,48.20
2018-07-13T15:24:27.184Z,48.00
2018-07-13T15:26:55.597Z,47.40
2018-07-13T15:29:24.030Z,47.60
2018-07-13T15:31:52.443Z,47.40
2018-07-13T15:34:20.847Z,46.60
2018-07-13T15:36:49.279Z,47.50
2018-07-13T15:39:17.675Z,46.60
2018-07-13T15:41:46.123Z,46.80
2018-07-13T15:44:14.533Z,46.30
2018-07-13T15:46:42.949Z,46.20
2018-07-13T15:49:11.364Z,46.30
2018-07-13T15:51:39.771Z,46.70
2018-07-13T15:56:36.363Z,46.50
2018-07-13T15:59:04.785Z,46.10
2018-07-13T16:01:33.240Z,46.70
2018-07-13T16:04:01.685Z,47.10
2018-07-13T16:06:30.096Z,47.80
2018-07-13T16:08:58.499Z,47.60
2018-07-13T16:11:26.927Z,46.40
2018-07-13T16:13:55.347Z,45.80
2018-07-13T16:16:23.781Z,46.50
2018-07-13T16:18:52.191Z,46.60
2018-07-13T16:21:20.606Z,45.30
2018-07-13T16:23:49.138Z,45.50
2018-07-13T16:26:17.555Z,46.00
2018-07-13T16:28:46.045Z,45.50
2018-07-13T16:31:14.542Z,45.50
2018-07-13T16:33:42.934Z,44.90
2018-07-13T16:38:39.624Z,45.00
2018-07-13T16:41:08.032Z,45.10
2018-07-13T16:43:36.450Z,44.80
2018-07-13T16:46:04.843Z,45.20
2018-07-13T16:48:33.232Z,44.50
2018-07-13T16:51:01.641Z,44.60
2018-07-13T16:53:30.046Z,44.70
2018-07-13T16:55:58.431Z,44.70
2018-07-13T16:58:26.823Z,44.70
2018-07-13T17:00:55.230Z,44.70
2018-07-13T17:03:23.672Z,43.70
2018-07-13T17:05:52.929Z,43.60
2018-07-13T17:08:21.687Z,43.70
2018-07-13T17:10:50.320Z,44.40
2018-07-13T17:13:18.757Z,44.60
2018-07-13T17:15:47.280Z,44.50
2018-07-13T17:18:15.714Z,44.20
2018-07-13T17:20:44.107Z,43.30
2018-07-13T17:23:12.863Z,43.50
2018-07-13T17:25:41.703Z,43.10
2018-07-13T17:28:10.204Z,43.50
2018-07-13T17:30:38.672Z,43.40
2018-07-13T17:33:07.123Z,43.20
2018-07-13T17:35:35.550Z,43.20
2018-07-13T17:38:04.112Z,43.90
2018-07-13T17:40:32.525Z,43.80
2018-07-13T17:43:01.022Z,43.10
2018-07-13T17:45:29.367Z,43.00
2018-07-13T17:47:58.199Z,43.50
2018-07-13T17:50:26.596Z,43.30
2018-07-13T17:52:55.013Z,43.10
2018-07-13T17:55:23.971Z,43.60
2018-07-13T17:57:52.434Z,43.70
2018-07-13T18:00:21.034Z,44.00
2018-07-13T18:02:49.445Z,43.50
2018-07-13T18:05:17.848Z,42.80
2018-07-13T18:07:46.244Z,43.40
2018-07-13T18:10:14.709Z,43.50
2018-07-13T18:12:43.185Z,43.70
2018-07-13T18:15:11.544Z,43.00
2018-07-13T18:17:39.982Z,43.40
2018-07-13T18:20:08.471Z,43.60
2018-07-13T18:22:37.181Z,43.20
2018-07-13T18:25:05.905Z,43.20
2018-07-13T18:27:35.430Z,43.50
2018-07-13T18:30:04.905Z,43.90
2018-07-13T18:32:33.757Z,44.50
2018-07-13T18:35:02.506Z,44.80
2018-07-13T18:37:31.292Z,45.20
2018-07-13T18:39:59.939Z,45.50
2018-07-13T18:42:28.351Z,46.20
2018-07-13T18:44:56.791Z,46.80
2018-07-13T18:47:25.201Z,47.00
2018-07-13T18:49:53.611Z,47.20
2018-07-13T18:52:22.143Z,47.10
2018-07-13T18:54:51.141Z,47.40
2018-07-13T18:57:19.555Z,47.90
2018-07-13T18:59:47.964Z,48.30
2018-07-13T19:02:16.356Z,48.70
2018-07-13T19:04:44.752Z,49.20
2018-07-13T19:07:13.174Z,49.70
2018-07-13T19:09:41.571Z,50.20
2018-07-13T19:12:09.964Z,50.80
2018-07-13T19:14:38.692Z,51.20
2018-07-13T19:17:07.091Z,51.70
2018-07-13T19:19:35.498Z,52.20
2018-07-13T19:22:04.211Z,52.80
2018-07-13T19:24:32.640Z,53.30
2018-07-13T19:27:01.463Z,53.70
2018-07-13T19:29:29.907Z,54.30
2018-07-13T19:31:58.335Z,54.80
2018-07-13T19:34:26.730Z,55.20
2018-07-13T19:36:55.111Z,55.80
2018-07-13T19:39:23.906Z,56.70
2018-07-13T19:41:52.299Z,57.90
2018-07-13T19:44:20.965Z,59.20
2018-07-13T19:46:49.505Z,60.40
2018-07-13T19:49:17.895Z,61.80
2018-07-13T19:51:46.311Z,63.00
2018-07-13T19:54:14.736Z,64.20
2018-07-13T19:56:43.127Z,64.90
2018-07-13T19:59:11.537Z,66.00
2018-07-13T20:01:40.005Z,67.00
2018-07-13T20:04:08.428Z,67.90
2018-07-13T20:06:36.837Z,68.80
2018-07-13T20:09:06.560Z,69.30
2018-07-13T20:11:34.946Z,69.80
2018-07-13T20:16:31.446Z,71.00
2018-07-13T20:18:59.848Z,71.30
2018-07-13T20:21:28.256Z,71.80
2018-07-13T20:23:57.639Z,72.50
2018-07-13T20:26:26.052Z,73.20
2018-07-13T20:28:54.478Z,73.80
2018-07-13T20:33:51.419Z,74.60
2018-07-13T20:36:19.821Z,74.90
2018-07-13T20:38:48.221Z,75.50
2018-07-13T20:41:16.636Z,76.20
2018-07-13T20:43:45.059Z,77.60
2018-07-13T20:46:13.847Z,77.10
2018-07-13T20:48:42.267Z,78.10
2018-07-13T20:51:10.675Z,77.80
2018-07-13T20:53:39.112Z,78.10
2018-07-13T20:56:07.509Z,78.70
2018-07-13T20:58:35.913Z,79.10
2018-07-13T21:01:04.359Z,79.20
2018-07-13T21:03:32.790Z,79.70
2018-07-13T21:06:01.190Z,80.00
2018-07-13T21:08:29.620Z,80.40
2018-07-13T21:10:58.026Z,80.90
2018-07-13T21:13:26.436Z,80.90
2018-07-13T21:15:55.674Z,81.30
2018-07-13T21:18:24.086Z,81.50
2018-07-13T21:20:52.528Z,81.80
2018-07-13T21:23:20.958Z,82.10
2018-07-13T21:25:49.414Z,82.20
2018-07-13T21:28:17.828Z,82.10
2018-07-13T21:30:46.243Z,82.00
2018-07-13T21:33:14.663Z,81.90
2018-07-13T21:35:43.174Z,82.00
2018-07-13T21:38:11.587Z,82.20
2018-07-13T21:40:39.979Z,82.80
2018-07-13T21:43:08.628Z,83.00
2018-07-13T21:45:37.051Z,83.30
2018-07-13T21:48:05.543Z,83.60
2018-07-13T21:50:33.955Z,83.80
2018-07-13T21:53:02.367Z,84.20
2018-07-13T21:55:30.765Z,84.50
2018-07-13T21:57:59.203Z,84.30
2018-07-13T22:00:27.621Z,84.30
2018-07-13T22:02:56.023Z,84.40
2018-07-13T22:05:24.431Z,84.50
2018-07-13T22:07:52.840Z,84.50
2018-07-13T22:10:21.247Z,84.50
2018-07-13T22:12:49.657Z,84.30
2018-07-13T22:15:18.050Z,84.20
2018-07-13T22:17:46.513Z,84.20
2018-07-13T22:20:14.915Z,85.30
2018-07-13T22:22:43.338Z,85.70
2018-07-13T22:25:11.823Z,86.00
2018-07-13T22:27:40.237Z,86.20
2018-07-13T22:30:08.635Z,86.20
2018-07-13T22:32:37.051Z,86.50
2018-07-13T22:35:06.016Z,86.50
2018-07-13T22:37:34.425Z,86.60
2018-07-13T22:40:02.844Z,86.70
2018-07-13T22:42:31.240Z,86.80
2018-07-13T22:44:59.631Z,87.00
2018-07-13T22:47:28.043Z,87.10
2018-07-13T22:49:56.468Z,87.40
2018-07-13T22:52:24.867Z,87.50
2018-07-13T22:54:53.286Z,87.40
2018-07-13T22:57:22.184Z,87.10
2018-07-13T23:02:19.423Z,86.70
2018-07-13T23:04:47.878Z,86.50
2018-07-13T23:07:16.394Z,86.60
2018-07-13T23:09:45.251Z,86.40
2018-07-13T23:12:14.115Z,86.30
2018-07-13T23:14:42.491Z,86.30
2018-07-13T23:17:11.203Z,86.70
2018-07-13T23:19:39.903Z,87.40
2018-07-13T23:22:09.167Z,87.90
2018-07-13T23:24:38.919Z,88.40
2018-07-13T23:27:07.353Z,88.50
2018-07-13T23:29:35.751Z,88.50
2018-07-13T23:32:04.449Z,88.30
2018-07-13T23:34:32.879Z,88.00
2018-07-13T23:37:01.299Z,88.00
2018-07-13T23:39:29.694Z,88.20
2018-07-13T23:41:58.130Z,88.10
2018-07-13T23:44:26.575Z,88.70
2018-07-13T23:46:55.018Z,89.00
2018-07-13T23:49:23.555Z,89.50
2018-07-13T23:51:51.957Z,89.60
2018-07-13T23:54:20.347Z,89.80
2018-07-13T23:56:48.736Z,89.70
2018-07-13T23:59:17.147Z,89.40
